Rubén Martínez

Ojeador - Málaga
13 Feb 2028
Domingo
Continuar

Personalidad

Adaptabilidad (4) Ambición (15) Controversia (20) Lealtad (12) Presión (14) Profesionalismo (18) Deportividad (1) Temperamento (19)

Perfil

Estilo de dirección Democrático
Licencia Nacional A
Determinación 8
Gestión de personas 7
Motivación 7
Disciplina 12
Satisfacción laboral
100%
Fatiga
0%
Cargo Ojeador
Salario 41.7K p/s
Contrato 14.03.2030

Rendimiento

Comportamiento Bueno
Efectividad del entrenamiento
54%
Desarrollo de jugadores
35%
Prevención de lesiones
45%
Implementación táctica
55%

Eventos recientes

Asistió a una reunión de captación ahora
Asistió a una reunión de captación ahora
Asistió a una reunión de captación 7d atrás
Asistió a una reunión de captación 7d atrás
Asistió a una reunión de captación 7d atrás
Observó un partido 7d atrás
Asistió a una reunión de captación 14d atrás
Observó un partido 14d atrás

Actualmente siguiendo

143
Jugador Club Estado Habilidad Confianza Observado Última observación Último voto
Yury Oyarzo Racing Activo 87 / 101 40% 4 17.01.2028 -
Giovanni Leoni Lincoln City Activo 139 / 149 40% 1 17.01.2028 -
Zane Albarus Shrewsbury Town Activo 96 / 98 40% 1 17.01.2028 -
Toni Fruk Talleres Negociando 132 / 133 66% 1 01.01.2028 -
Bitello Universidad de Chile Negociando 135 / 135 68% 1 01.01.2028 -
Victor Hernandez Santa Fe Activo 125 / 121 40% 19 31.12.2027 -
Sebastián Ramírez Aguilas Doradas Activo 102 / 111 40% 7 31.12.2027 -
Olaniyi Saheed Kwara United Activo 97 / 87 40% 2 19.12.2027 -
Nazareno Roselli Defensa y Justicia Activo 117 / 113 40% 4 19.12.2027 -
Colin Guske Orlando City Activo 105 / 95 40% 3 19.12.2027 -
Hosea Michael Remo Stars Activo 97 / 80 40% 3 18.12.2027 -
Josh Nichols Oldham Athletic Activo 123 / 120 40% 4 18.12.2027 -
Honest Ahanor Atalanta Activo 134 / 146 40% 4 17.12.2027 -
Nahuel Leivas Montevideo City Torque Activo 97 / 114 40% 3 16.12.2027 -
Alpha Touré FC Metz Activo 116 / 119 40% 1 16.12.2027 -
Caleb Yirenkyi Coventry City Activo 136 / 153 40% 4 15.12.2027 -
Daniel Idoko Ikorodu City Activo 86 / 105 40% 2 15.12.2027 -
Agustín De la Cuesta Racing Activo 116 / 110 40% 5 14.12.2027 -
Ayden Heaven Portsmouth Activo 144 / 145 40% 3 14.12.2027 -
Ulises Giménez River Plate Activo 106 / 121 40% 1 14.12.2027 -
David Damboama El-Kanemi Warriors Activo 79 / 104 40% 3 13.12.2027 -
Gideon Manaseh Ikorodu City Activo 94 / 105 40% 4 13.12.2027 -
Adam Aznou Everton Activo 135 / 133 40% 1 13.12.2027 -
Juan Camilo Córdoba Deportivo Pereira Activo 82 / 99 40% 3 10.12.2027 -
Archie Gray Southampton Activo 153 / 150 40% 2 10.12.2027 -
Esquerdinha Notts County Activo 125 / 120 40% 1 10.12.2027 -
Facundo Balatti Penarol Activo 98 / 114 40% 3 09.12.2027 -
Vinícius Lira São Paulo Activo 112 / 126 40% 2 08.12.2027 -
Christos Mouzakitis Hull City Activo 135 / 142 40% 2 08.12.2027 -
Matias Siltanen Malmo FF Negociando 132 / 142 40% 5 07.12.2027 -
Santiago Colidio Liepaja Activo 99 / 108 40% 2 07.12.2027 -
Héctor Fort Real Sociedad Activo 144 / 149 40% 2 07.12.2027 -
Alejandro Almaraz NK Celje Activo 106 / 114 40% 2 05.12.2027 -
Agustín Obregón River Plate Activo 114 / 117 40% 1 05.12.2027 -
Josh King Newcastle United Activo 139 / 153 40% 3 04.12.2027 -
Juan Manuel Villalba Tigre Activo 114 / 130 40% 5 02.12.2027 -
Kenan Busuladžić Malmo FF Activo 104 / 123 40% 1 30.11.2027 -
Alan Valdelamar Independiente Medellin Activo 96 / 103 40% 3 29.11.2027 -
Oscar Steinke Brånby Hammarby Activo 113 / 112 40% 1 26.11.2027 -
Felipe Faúndez O'Higgins Activo 107 / 106 40% 5 24.11.2027 -
Ignacio Fernández Boston River Activo 92 / 109 40% 3 20.11.2027 -
Yerry Gonzalez Universitario Popayan Activo 84 / 96 40% 1 14.11.2027 -
Marco Morigi Caracas Activo 84 / 102 40% 4 10.11.2027 -
Lucas Camejo River Plate Activo 86 / 92 40% 4 09.11.2027 -
Hian Rincón Once Caldas Activo 86 / 88 40% 1 09.11.2027 -
Jorge Salinas Racing Santander Activo 136 / 145 40% 1 09.11.2027 -
Hugo Rojas Instituto Activo 110 / 110 40% 4 08.11.2027 -
Pedro Soma San Diego Football Club Activo 98 / 121 40% 1 20.10.2027 -
Julián Bazán New York Red Bulls Activo 119 / 126 40% 4 19.10.2027 -
Sebastián Flores Ferro Carril Oeste Activo 108 / 104 40% 2 18.10.2027 -
Esteban de Lima Tacuarembo Activo 87 / 106 40% 3 16.10.2027 -
Onyeuche Ujunwa Ikorodu City Activo 93 / 94 40% 2 13.10.2027 -
Santiago Murillo Alianza Petrolera Activo 134 / 140 40% 2 12.10.2027 -
Ángel Aguayo Sol de America Activo 94 / 97 40% 1 12.10.2027 -
Issa Yusuf Shooting Stars Activo 94 / 88 40% 1 03.10.2027 -
Luciano Posadas Central Córdoba SdE Activo 99 / 93 40% 1 03.10.2027 -
Mohamed Moussa Koïta Mathare United Activo 92 / 101 40% 1 26.09.2027 -
Joel Ezra Enyimba Activo 98 / 105 40% 1 23.09.2027 -
Diego Vargas Universidad de Concepcion Activo 97 / 93 40% 2 17.09.2027 -
Chibueze Oputa Rangers International Activo 93 / 84 40% 2 17.09.2027 -
Juan Diego Perdomo Depor Activo 85 / 88 40% 1 14.09.2027 -
Tiago Gordillo San Miguel Activo 89 / 92 40% 2 13.09.2027 -
Godwin Oham Warri Wolves Activo 84 / 95 40% 2 13.09.2027 -
Vitor Reis Manchester City Activo 134 / 140 40% 1 09.09.2027 -
Gadiel Paoli River Plate Activo 98 / 102 40% 1 06.09.2027 -
Zahir Ibarra Defensa y Justicia Activo 107 / 113 40% 1 01.09.2027 -
Kota Tawaratsumida Albirex Niigata Negociando 133 / 136 66% 1 01.06.2027 -
Dávid Strelec Girona Perdido 135 / 136 68% 1 01.06.2027 -
Jonathan Asp-Jensen Deportivo La Coruña Activo 126 / 133 40% 8 31.05.2027 -
Samir El Mourabet RC Strasbourg Activo 129 / 122 40% 2 31.05.2027 -
Assane Diao Como Activo 151 / 152 40% 7 30.05.2027 -
Jesús Rodríguez Como Activo 149 / 148 40% 2 30.05.2027 -
Romelle Donovan Brentford Activo 123 / 124 40% 3 28.05.2027 -
Riley Owen Stevenage Activo 101 / 116 40% 2 27.05.2027 -
Gianluca Prestianni Benfica Activo 129 / 144 40% 3 26.05.2027 -
Alex Verón Vélez Activo 106 / 124 40% 1 26.05.2027 -
Gorka Gorosabel Real Sociedad Activo 102 / 109 40% 1 26.05.2027 -
Gessime Yassine RC Strasbourg Activo 124 / 133 40% 1 22.05.2027 -
Yussif Saidu Zaragoza Activo 129 / 130 40% 3 20.05.2027 -
Daniel Awuni Aduana Stars Activo 104 / 99 40% 3 19.05.2027 -
Yusi Alavés Activo 128 / 134 40% 3 18.05.2027 -
Olívio Tomé Benfica Activo 114 / 122 40% 1 18.05.2027 -
Nikolaus Wurmbrand Girona Activo 124 / 133 40% 1 18.05.2027 -
Jan Virgili Club Brugge Activo 141 / 129 40% 2 13.05.2027 -
Ethan Williams Peterborough United Activo 104 / 113 40% 2 13.05.2027 -
Sindre Walle Egeli Udinese Activo 133 / 143 40% 1 13.05.2027 -
Oscar Schwartau Norwich City Activo 115 / 123 40% 3 12.05.2027 -
Araphat Mohammed Ashanti Gold Activo 93 / 121 40% 1 11.05.2027 -
Nestory Irankunda Watford Activo 124 / 128 40% 1 11.05.2027 -
Mohamadou Kanté Crawley Town Activo 113 / 123 40% 3 10.05.2027 -
Bongani Jali Free State Stars Activo 103 / 89 40% 1 10.05.2027 -
Stevan Manuel Benfica Activo 88 / 104 40% 1 07.05.2027 -
Kirill Glebov CSKA Moscow Activo 119 / 128 40% 1 03.05.2027 -
Manu Rodríguez Gijón Activo 104 / 108 40% 3 02.05.2027 -
Chemsdine Talbi Sunderland Activo 149 / 139 40% 5 01.05.2027 -
Othmane Maamma Watford Activo 116 / 133 40% 2 30.04.2027 -
Monty Batlhabane Polokwane City Activo 106 / 106 40% 2 30.04.2027 -
Asanele Bonani Chippa United Activo 87 / 100 40% 1 27.04.2027 -
Yael Padilla Tijuana Activo 100 / 112 40% 1 25.04.2027 -
Jan Bürger Northampton Town Activo 119 / 112 40% 1 25.04.2027 -
Sam Amo-Ameyaw RC Strasbourg Activo 125 / 133 40% 1 20.04.2027 -
Germán Barbas Burgos Activo 94 / 104 40% 1 20.04.2027 -
Mateus Mané Burnley Activo 125 / 147 40% 2 15.04.2027 -
Lander Astiazarán Real Sociedad Activo 95 / 110 40% 1 14.04.2027 -
Jorrel Hato Chelsea Activo 149 / 146 40% 1 10.04.2027 -
Rocco Vata Watford Activo 118 / 130 40% 1 07.04.2027 -
Jon Guruzeta Eibar Activo 115 / 112 62% 1 11.01.2027 -
Brian Rodríguez Club America Activo 130 / 122 40% 5 31.12.2026 -
Brian Gutiérrez Guadalajara Activo 137 / 141 40% 6 31.12.2026 -
Roberto Fernández Braga Activo 146 / 135 40% 1 29.12.2026 Más información
Diego Lainez Tigres Activo 130 / 132 40% 7 27.12.2026 Observar
Jeremy Márquez Cruz Azul Activo 136 / 113 40% 1 25.12.2026 -
Oswin Appollis Orlando Pirates Activo 137 / 125 40% 2 23.12.2026 -
Duk Atlas Activo 106 / 110 40% 1 18.12.2026 -
Rômulo Tigres Activo 120 / 126 40% 1 17.12.2026 -
Omar El Hilali Espanyol Activo 141 / 141 40% 1 17.12.2026 -
Finn Azaz Southampton Activo 125 / 124 40% 1 16.12.2026 -
Bryan Gil Girona Activo 145 / 147 40% 1 10.12.2026 -
Joaquín Gho Argentinos Juniors Activo 124 / 129 40% 2 07.12.2026 -
Ezequiel Bullaude Santos Laguna Activo 128 / 135 40% 1 07.12.2026 -
Savinho Tottenham Activo 146 / 158 40% 2 05.12.2026 -
Carlos Álvarez Club America Activo 130 / 150 40% 2 04.12.2026 -
Andrés Montaño Cruz Azul Activo 105 / 109 40% 1 04.12.2026 -
Justo Giani Umraniyespor Activo 128 / 127 40% 1 02.12.2026 -
Juan Bisanz Huracán Activo 137 / 131 40% 3 30.11.2026 -
Pablo Torre Mallorca Activo 139 / 145 40% 1 20.11.2026 -
Jonathan Dubasin Osasuna Activo 131 / 140 40% 1 19.11.2026 -
Cody Gakpo Liverpool Activo 148 / 161 40% 1 13.11.2026 -
César Araújo Tigres Activo 135 / 138 40% 2 10.11.2026 -
Santiago Simón Toluca Activo 110 / 109 40% 1 10.11.2026 -
Bradley Zwane SuperSport United Activo 103 / 124 40% 1 07.11.2026 -
Ramiro Sordo Santos Laguna Activo 111 / 120 40% 1 05.11.2026 -
Adrián Sánchez Belgrano Activo 132 / 119 40% 1 02.11.2026 -
Aarón Molinas Defensa y Justicia Activo 128 / 120 40% 2 01.11.2026 -
Alejandro Piedrahita Deportivo Pereira Activo 119 / 130 40% 2 21.10.2026 -
Santiago Montiel Independiente Activo 118 / 118 40% 1 19.10.2026 -
Junior Hernández Deportes Tolima Activo 123 / 120 40% 1 17.10.2026 -
Rick Talleres Activo 126 / 123 40% 1 08.10.2026 -
Alexis Cuello San Lorenzo Activo 124 / 118 40% 1 07.10.2026 -
Omar Campos Cruz Azul Activo 127 / 126 40% 1 07.10.2026 -
Valentín Depietri Talleres Activo 121 / 130 40% 1 06.10.2026 -
Erik Lira Cruz Azul Activo 147 / 146 40% 1 06.10.2026 -
César Ibáñez Huracán Activo 119 / 118 40% 1 05.10.2026 -